Latest Weather Observations for Palmerville

IDQ60801

Issued at 2:31 pm EST Sunday 19 April 2015 (issued every 30 minutes, with the page automatically refreshed every 10 minutes)

About weather observations | Map of weather stations | Latest weather observations for QLD | Other Formats
Station Details ID: 028004 Name: PALMERVILLE Lat: -16.00 Lon: 144.08 Height: 203.8 m
Data from the previous 72 hours. | See also: Recent months at Palmerville
Date/Time
EST
Temp
°C
App
Temp
°C
Dew
Point
Rel
Hum
%
Delta-T
°C
Wind Press
QNH
hPa
Press
MSL
hPa
Rain
since 9 am
mm
Dir
 
Spd
km/h
Gust
km/h
Spd
kts
Gust
kts
19/02:30pm 32.4 34.6 20.3 48 8.1 E 9 13 5 7 1012.0 1010.8 0.0
19/02:00pm 31.3 32.0 19.6 49 7.7 SSE 15 24 8 13 1012.5 1011.3 0.0
19/01:30pm 32.0 34.4 20.9 52 7.5 E 9 15 5 8 1012.9 1011.7 0.0
19/01:00pm 29.8 32.2 21.5 61 5.6 SSE 11 19 6 10 1013.5 1012.2 0.0
19/12:30pm 30.0 31.2 20.0 55 6.6 ESE 13 17 7 9 1014.0 1012.7 0.0
19/12:00pm 32.0 33.0 20.3 50 7.8 SE 15 22 8 12 1014.3 1013.1 0.0
19/11:30am 30.0 32.6 20.5 56 6.3 ESE 7 11 4 6 1014.9 1013.7 0.0
19/11:00am 29.3 31.5 20.5 59 5.9 ESE 9 17 5 9 1015.2 1014.0 0.0
19/10:30am 29.1 30.1 20.3 59 5.8 SE 15 20 8 11 1015.5 1014.3 0.0
19/10:00am 28.8 30.6 20.3 60 5.6 E 11 20 6 11 1015.5 1014.3 0.0
19/09:30am 28.7 30.5 20.4 60 5.5 NE 11 17 6 9 1015.3 1014.1 0.0
19/09:00am 27.8 30.6 20.9 66 4.6 ESE 7 15 4 8 1014.8 1013.6 0.0
19/08:30am 26.0 29.7 20.8 73 3.4 N 2 6 1 3 1014.9 1013.7 0.0
19/08:00am 25.1 29.4 21.2 79 2.6 CALM 0 0 0 0 1014.8 1013.6 0.0
19/07:30am 23.3 27.9 21.7 91 1.1 CALM 0 0 0 0 1014.3 1013.1 0.0
19/07:00am 22.1 26.5 21.3 95 0.5 CALM 0 7 0 4 1013.8 1012.5 0.0
19/06:30am 22.1 26.3 20.9 93 0.8 CALM 0 6 0 3 1013.4 1012.1 0.0
19/06:00am 22.6 26.6 21.4 93 0.8 E 2 7 1 4 1012.9 1011.7 0.0
19/05:30am 22.3 26.6 21.1 93 0.8 CALM 0 0 0 0 1012.9 1011.7 0.0
19/05:00am 22.9 27.3 21.4 91 1.0 CALM 0 0 0 0 1012.7 1011.5 0.0
19/04:30am 23.2 26.2 20.9 87 1.5 S 6 9 3 5 1012.5 1011.3 0.0
19/04:00am 23.1 27.1 20.6 86 1.6 CALM 0 0 0 0 1012.4 1011.2 0.0
19/03:30am 23.7 28.0 21.2 86 1.7 CALM 0 0 0 0 1012.5 1011.3 0.0
19/03:00am 24.1 28.2 20.8 82 2.2 CALM 0 0 0 0 1012.7 1011.5 0.0
19/02:30am 24.6 28.8 20.9 80 2.4 CALM 0 0 0 0 1012.9 1011.7 0.0
19/02:00am 24.8 28.6 20.9 79 2.6 ESE 2 6 1 3 1013.2 1011.9 0.0
19/01:30am 24.8 29.0 20.9 79 2.6 CALM 0 0 0 0 1013.6 1012.3 0.0
19/01:00am 24.8 27.8 20.9 79 2.6 SE 6 7 3 4 1014.1 1012.8 0.0
19/12:30am 24.7 28.9 21.0 80 2.4 CALM 0 0 0 0 1014.5 1013.3 0.0
19/12:00am 24.7 27.8 21.0 80 2.4 ENE 6 9 3 5 1014.4 1013.2 0.0
 
Date/Time
EST
Temp
°C
App
Temp
°C
Dew
Point
Rel
Hum
%
Delta-T
°C
Wind Press
QNH
hPa
Press
MSL
hPa
Rain
since 9 am
mm
Dir
 
Spd
km/h
Gust
km/h
Spd
kts
Gust
kts
18/11:30pm 24.5 27.9 21.0 81 2.3 E 4 7 2 4 1014.4 1013.2 0.0
18/11:00pm 24.6 28.3 20.7 79 2.6 ESE 2 6 1 3 1014.5 1013.3 0.0
18/10:30pm 25.0 28.3 20.7 77 2.8 E 4 6 2 3 1014.5 1013.3 0.0
18/10:00pm 25.2 29.2 20.5 75 3.1 CALM 0 0 0 0 1014.5 1013.3 0.0
18/09:30pm 25.9 30.0 20.7 73 3.4 CALM 0 6 0 3 1014.8 1013.6 0.0
18/09:00pm 26.4 29.1 20.7 71 3.8 ENE 7 13 4 7 1015.0 1013.8 0.0
18/08:30pm 26.6 29.6 20.9 71 3.8 ENE 6 9 3 5 1014.6 1013.4 0.0
18/08:00pm 27.0 29.9 21.1 70 3.9 ENE 7 13 4 7 1014.0 1012.7 0.0
18/07:30pm 27.4 30.0 21.2 69 4.1 ENE 9 15 5 8 1013.4 1012.1 0.0
18/07:00pm 27.8 29.9 20.9 66 4.6 ENE 11 20 6 11 1012.9 1011.7 0.0
18/06:30pm 28.3 29.9 20.8 63 5.0 ENE 13 24 7 13 1012.4 1011.2 0.0
18/06:00pm 29.2 32.2 21.2 62 5.4 ENE 7 13 4 7 1012.1 1010.9 0.0
18/05:30pm 29.5 31.2 20.9 60 5.8 NE 13 20 7 11 1011.4 1010.2 0.0
18/05:00pm 29.8 31.9 20.9 59 6.0 ENE 11 17 6 9 1011.3 1010.1 0.0
18/04:30pm 29.9 30.5 21.0 59 6.0 ENE 19 30 10 16 1011.0 1009.8 0.0
18/04:00pm 32.2 33.5 20.8 51 7.7 ENE 15 22 8 12 1010.5 1009.3 0.0
18/03:30pm 33.7 35.4 20.1 44 9.1 ENE 11 20 6 11 1010.4 1009.2 0.0
18/03:00pm 33.2 35.0 20.4 47 8.6 ENE 11 15 6 8 1010.7 1009.5 0.0
18/02:30pm 33.4 34.6 19.1 42 9.4 ENE 11 20 6 11 1010.9 1009.7 0.0
18/02:00pm 34.5 36.0 19.7 41 9.9 ENE 11 20 6 11 1011.1 1009.9 0.0
18/01:30pm 33.4 34.8 19.5 44 9.2 ENE 11 19 6 10 1011.7 1010.5 0.0
18/01:00pm 32.4 33.3 19.3 46 8.7 E 13 20 7 11 1012.3 1011.1 0.0
18/12:30pm 32.3 32.9 19.5 46 8.5 E 15 26 8 14 1013.1 1011.8 0.0
18/12:00pm 32.4 33.3 19.3 46 8.7 ENE 13 20 7 11 1013.6 1012.3 0.0
18/11:30am 31.7 31.9 19.3 47 8.2 E 17 28 9 15 1014.2 1013.0 0.0
18/11:00am 31.5 32.8 20.1 50 7.6 ENE 13 20 7 11 1014.6 1013.4 0.0
18/10:30am 31.1 32.4 19.4 49 7.7 ENE 11 17 6 9 1015.0 1013.8 0.0
18/10:00am 29.9 32.7 19.6 54 6.8 ESE 4 9 2 5 1015.1 1013.9 0.0
18/09:30am 29.1 31.4 19.4 55 6.4 NE 6 9 3 5 1015.1 1013.9 0.0
18/09:00am 27.5 29.4 19.0 59 5.5 NE 7 9 4 5 1014.8 1013.6 0.0
18/08:30am 26.4 28.1 18.5 62 5.1 ENE 7 11 4 6 1014.7 1013.5 0.0
18/08:00am 25.4 27.3 18.6 66 4.4 NNE 6 9 3 5 1014.5 1013.3 0.0
18/07:30am 24.6 26.8 18.3 68 4.0 NE 4 7 2 4 1014.2 1013.0 0.0
18/07:00am 22.6 24.4 18.2 76 2.8 E 6 11 3 6 1013.7 1012.4 0.0
18/06:30am 22.9 24.7 18.4 76 2.9 SSW 6 15 3 8 1012.8 1011.6 0.0
18/06:00am 22.8 24.9 18.1 75 3.0 ENE 4 11 2 6 1012.5 1011.3 0.0
18/05:30am 22.4 24.5 18.0 76 2.8 E 4 11 2 6 1012.3 1011.1 0.0
18/05:00am 22.7 24.7 17.8 74 3.1 SE 4 9 2 5 1012.1 1010.9 0.0
18/04:30am 22.8 24.7 17.7 73 3.2 ESE 4 7 2 4 1012.1 1010.9 0.0
18/04:00am 23.3 24.8 17.5 70 3.6 E 6 17 3 9 1012.5 1011.3 0.0
18/03:30am 24.1 24.7 17.6 67 4.1 ESE 11 19 6 10 1012.8 1011.6 0.0
18/03:00am 24.3 24.4 17.5 66 4.3 ESE 13 20 7 11 1012.8 1011.6 0.0
18/02:30am 24.6 24.5 17.8 66 4.3 SE 15 20 8 11 1013.2 1011.9 0.0
18/02:00am 24.7 24.5 17.7 65 4.4 SE 15 24 8 13 1013.4 1012.1 0.0
18/01:30am 24.6 24.8 17.6 65 4.4 SE 13 24 7 13 1013.6 1012.3 0.0
18/01:00am 25.0 24.5 17.7 64 4.6 SE 17 24 9 13 1014.0 1012.7 0.0
18/12:30am 25.0 25.2 17.7 64 4.6 SE 13 20 7 11 1014.5 1013.3 0.0
18/12:00am 25.2 25.4 17.7 63 4.7 SE 13 17 7 9 1014.6 1013.4 0.0
 
Date/Time
EST
Temp
°C
App
Temp
°C
Dew
Point
Rel
Hum
%
Delta-T
°C
Wind Press
QNH
hPa
Press
MSL
hPa
Rain
since 9 am
mm
Dir
 
Spd
km/h
Gust
km/h
Spd
kts
Gust
kts
17/11:30pm 25.5 26.5 17.7 62 4.9 ESE 9 15 5 8 1014.9 1013.7 0.0
17/11:00pm 25.8 25.9 17.4 59 5.3 ESE 13 24 7 13 1014.9 1013.7 0.0
17/10:30pm 25.7 26.6 17.6 61 5.1 SE 9 17 5 9 1014.9 1013.7 0.0
17/10:00pm 26.0 26.4 18.2 62 5.0 SE 13 22 7 12 1015.0 1013.8 0.0
17/09:30pm 26.2 26.4 18.6 63 4.9 SE 15 22 8 12 1014.8 1013.6 0.0
17/09:00pm 26.4 28.2 19.5 66 4.5 ESE 9 15 5 8 1014.6 1013.4 0.0
17/08:30pm 26.8 27.9 19.7 65 4.6 ESE 13 20 7 11 1014.2 1013.0 0.0
17/08:00pm 27.3 28.4 19.6 62 5.0 E 13 19 7 10 1013.8 1012.5 0.0
17/07:30pm 27.3 29.0 19.4 62 5.2 E 9 13 5 7 1013.3 1012.0 0.0
17/07:00pm 27.7 29.0 19.2 60 5.5 ENE 11 17 6 9 1012.6 1011.4 0.0
17/06:30pm 28.6 29.4 19.8 59 5.8 E 15 28 8 15 1012.2 1011.0 0.0
17/06:00pm 29.2 30.2 19.5 56 6.4 NE 13 20 7 11 1011.8 1010.6 0.0
17/05:30pm 30.2 31.0 19.9 54 6.8 NE 15 24 8 13 1011.6 1010.4 0.0
17/05:00pm 30.8 31.7 19.2 50 7.6 ENE 13 24 7 13 1011.4 1010.2 0.0
17/04:30pm 30.8 31.5 18.8 48 7.8 NE 13 24 7 13 1011.3 1010.1 0.0
17/04:00pm 31.2 31.4 18.5 46 8.3 NNE 15 26 8 14 1011.2 1010.0 0.0
17/03:30pm 32.2 32.2 17.3 41 9.6 ENE 13 22 7 12 1011.2 1010.0 0.0
17/03:00pm 32.0 32.0 16.3 39 9.9 ENE 11 19 6 10 1011.3 1010.1 0.0
17/02:30pm 34.5 34.7 18.5 38 10.5 E 15 26 8 14 1011.6 1010.4 0.0
17/02:00pm 32.7 31.5 16.1 37 10.5 ENE 17 28 9 15 1012.3 1011.1 0.0
17/01:30pm 32.6 31.8 16.0 36 10.5 NE 15 26 8 14 1012.8 1011.6 0.0
17/01:00pm 30.6 29.2 15.5 40 9.4 SE 17 26 9 14 1013.5 1012.2 0.0
17/12:30pm 29.8 29.9 16.6 45 8.3 E 11 19 6 10 1013.9 1012.6 0.0
17/12:00pm 29.6 29.9 17.1 47 7.9 ESE 11 20 6 11 1014.4 1013.2 0.0
17/11:30am 30.3 31.1 17.4 46 8.2 E 9 20 5 11 1014.8 1013.6 0.0
17/11:00am 30.2 31.1 18.3 49 7.7 E 11 20 6 11 1015.6 1014.4 0.0
17/10:30am 29.1 28.8 17.3 49 7.5 E 15 26 8 14 1015.9 1014.7 0.0
17/10:00am 28.6 29.4 18.1 53 6.7 ESE 11 20 6 11 1016.2 1015.0 0.0
17/09:30am 27.5 29.0 19.0 59 5.5 ESE 9 15 5 8 1016.3 1015.1 0.0
17/09:00am 26.2 27.2 18.6 63 4.9 ESE 11 20 6 11 1016.6 1015.4 0.0
17/08:30am 24.5 26.7 19.1 72 3.5 ESE 6 9 3 5 1016.3 1015.1 0.0
17/08:00am 22.0 23.9 19.0 83 1.9 ENE 7 11 4 6 1016.5 1015.3 0.0
17/07:30am 20.4 22.4 18.7 90 1.1 E 6 7 3 4 1016.2 1015.0 0.0
17/07:00am 19.5 22.3 18.8 96 0.4 ENE 2 7 1 4 1015.9 1014.7 0.0
17/06:30am 19.1 20.9 18.4 96 0.4 E 6 9 3 5 1015.4 1014.2 0.0
17/06:00am 18.8 21.8 18.5 98 0.2 CALM 0 0 0 0 1015.0 1013.8 0.0
17/05:30am 18.5 21.4 18.3 99 0.1 CALM 0 0 0 0 1015.0 1013.8 0.0
17/05:00am 18.5 21.4 18.3 99 0.1 CALM 0 0 0 0 1014.6 1013.4 0.0
17/04:30am 18.6 21.5 18.1 97 0.3 CALM 0 0 0 0 1014.3 1013.1 0.0
17/04:00am 18.8 21.7 18.1 96 0.4 CALM 0 0 0 0 1014.4 1013.2 0.0
17/03:30am 18.9 21.4 18.1 95 0.5 E 2 6 1 3 1014.5 1013.3 0.0
17/03:00am 19.2 22.0 18.0 93 0.7 CALM 0 0 0 0 1014.7 1013.5 0.0
17/02:30am 19.3 22.1 18.0 92 0.8 CALM 0 0 0 0 1015.0 1013.8 0.0
17/02:00am 19.7 22.4 17.7 88 1.2 CALM 0 0 0 0 1015.5 1014.3 0.0
17/01:30am 19.9 22.7 18.0 89 1.2 CALM 0 0 0 0 1015.9 1014.7 0.0
17/01:00am 20.4 22.9 17.2 82 2.0 CALM 0 0 0 0 1016.1 1014.9 0.0
17/12:30am 21.2 23.6 17.0 77 2.6 CALM 0 0 0 0 1016.7 1015.5 0.0
17/12:00am 22.3 24.7 17.0 72 3.3 CALM 0 0 0 0 1017.0 1015.8 0.0
 
Date/Time
EST
Temp
°C
App
Temp
°C
Dew
Point
Rel
Hum
%
Delta-T
°C
Wind Press
QNH
hPa
Press
MSL
hPa
Rain
since 9 am
mm
Dir
 
Spd
km/h
Gust
km/h
Spd
kts
Gust
kts
16/11:30pm 24.0 25.1 17.0 65 4.4 ESE 7 11 4 6 1017.0 1015.8 0.0
16/11:00pm 24.6 25.4 17.3 64 4.6 ESE 9 15 5 8 1017.5 1016.3 0.0
16/10:30pm 24.6 25.1 16.6 61 5.0 ESE 9 15 5 8 1017.6 1016.4 0.0
16/10:00pm 25.4 25.2 16.8 59 5.4 ESE 13 20 7 11 1017.8 1016.6 0.0
16/09:30pm 24.2 25.1 16.7 63 4.6 ESE 7 11 4 6 1017.7 1016.5 0.0
16/09:00pm 24.3 25.1 16.3 61 4.9 E 7 9 4 5 1017.5 1016.3 0.0
16/08:30pm 25.0 26.7 16.2 58 5.4 ESE 2 6 1 3 1016.9 1015.7 0.0
16/08:00pm 25.7 26.5 16.3 56 5.8 E 7 9 4 5 1016.6 1015.4 0.0
16/07:30pm 26.6 27.5 16.5 54 6.3 ENE 7 13 4 7 1016.0 1014.8 0.0
16/07:00pm 27.4 27.7 16.1 50 7.0 ENE 9 13 5 7 1015.5 1014.3 0.0
16/06:30pm 28.4 28.0 15.3 45 8.1 ENE 11 19 6 10 1015.1 1013.9 0.0
16/06:00pm 29.2 28.6 14.6 41 8.9 ENE 11 15 6 8 1014.8 1013.6 0.0
16/05:30pm 30.6 29.6 14.7 38 9.8 E 13 22 7 12 1014.4 1013.2 0.0
16/05:00pm 31.3 30.4 14.9 37 10.1 ENE 13 22 7 12 1014.1 1012.8 0.0
16/04:30pm 32.4 31.2 15.0 35 10.8 ENE 15 28 8 15 1013.6 1012.3 0.0
16/04:00pm 32.8 32.3 15.8 36 10.7 ENE 13 28 7 15 1013.4 1012.1 0.0
16/03:30pm 32.4 30.8 15.0 35 10.8 ENE 17 30 9 16 1013.5 1012.2 0.0
16/03:00pm 32.3 31.0 15.7 36 10.4 E 17 26 9 14 1013.6 1012.3 0.0

Other Formats:

Comma delimited format used in spreadsheet applications
http://www.bom.gov.au/fwo/IDQ60801/IDQ60801.94276.axf

JavaScript Object Notation format (JSON) in row-major order
http://www.bom.gov.au/fwo/IDQ60801/IDQ60801.94276.json